createdAt,value
2018-11-14T00:00:08.139Z,8.70
2018-11-14T00:05:07.514Z,8.53
2018-11-14T00:10:05.881Z,7.23
2018-11-14T00:15:03.410Z,7.93
2018-11-14T00:20:00.759Z,8.60
2018-11-14T00:24:58.119Z,7.70
2018-11-14T00:29:55.612Z,8.17
2018-11-14T00:35:03.707Z,8.10
2018-11-14T00:40:01.095Z,9.27
2018-11-14T00:44:58.477Z,7.80
2018-11-14T00:49:55.846Z,8.23
2018-11-14T00:54:53.210Z,6.80
2018-11-14T00:59:50.621Z,7.47
2018-11-14T01:04:52.800Z,7.70
2018-11-14T01:09:50.191Z,8.40
2018-11-14T01:14:47.579Z,8.00
2018-11-14T01:19:44.939Z,8.87
2018-11-14T01:24:42.327Z,7.47
2018-11-14T01:29:39.717Z,8.33
2018-11-14T01:34:40.130Z,7.73
2018-11-14T01:39:37.552Z,8.43
2018-11-14T01:44:34.901Z,8.00
2018-11-14T01:49:32.257Z,8.70
2018-11-14T01:54:29.602Z,8.73
2018-11-14T01:59:26.962Z,9.13
2018-11-14T02:09:35.003Z,7.40
2018-11-14T02:14:32.362Z,7.43
2018-11-14T02:19:29.819Z,8.30
2018-11-14T02:24:27.190Z,8.07
2018-11-14T02:29:24.590Z,8.13
2018-11-14T02:34:29.996Z,8.37
2018-11-14T02:39:27.418Z,6.97
2018-11-14T02:44:24.806Z,8.17
2018-11-14T02:49:22.179Z,7.37
2018-11-14T02:54:19.556Z,7.70
2018-11-14T02:59:16.937Z,6.70
2018-11-14T03:04:16.706Z,7.17
2018-11-14T03:09:14.075Z,7.33
2018-11-14T03:14:12.770Z,7.00
2018-11-14T03:19:10.219Z,6.43
2018-11-14T03:24:07.618Z,8.80
2018-11-14T03:29:05.159Z,6.77
2018-11-14T03:34:02.560Z,6.97
2018-11-14T03:38:59.967Z,7.70
2018-11-14T03:43:57.351Z,8.13
2018-11-14T03:48:54.788Z,8.70
2018-11-14T03:53:52.174Z,7.23
2018-11-14T03:58:49.583Z,7.30
2018-11-14T04:03:46.970Z,8.87
2018-11-14T04:08:44.326Z,8.03
2018-11-14T04:13:41.687Z,8.50
2018-11-14T04:18:39.062Z,7.20
2018-11-14T04:23:45.118Z,7.47
2018-11-14T04:28:42.531Z,7.77
2018-11-14T04:33:39.902Z,7.30
2018-11-14T04:38:37.259Z,8.07
2018-11-14T04:43:34.634Z,6.50
2018-11-14T04:48:32.003Z,6.80
2018-11-14T04:53:29.392Z,7.80
2018-11-14T04:58:26.742Z,7.63
2018-11-14T05:03:24.094Z,7.50
2018-11-14T05:08:21.471Z,8.90
2018-11-14T05:13:18.842Z,8.53
2018-11-14T05:18:16.230Z,6.30
2018-11-14T05:23:13.594Z,6.50
2018-11-14T05:28:10.999Z,7.23
2018-11-14T05:33:08.360Z,7.63
2018-11-14T05:38:05.787Z,6.30
2018-11-14T05:43:03.186Z,4.13
2018-11-14T05:48:00.558Z,4.93
2018-11-14T05:52:57.934Z,4.30
2018-11-14T05:57:55.302Z,5.23
2018-11-14T06:02:52.700Z,6.70
2018-11-14T06:07:50.086Z,6.60
2018-11-14T06:12:47.546Z,10.10
2018-11-14T06:17:45.759Z,8.13
2018-11-14T06:22:44.299Z,5.97
2018-11-14T06:27:41.746Z,6.10
2018-11-14T06:32:39.199Z,6.87
2018-11-14T06:37:36.915Z,7.50
2018-11-14T06:42:34.310Z,7.63
2018-11-14T06:47:31.703Z,7.50
2018-11-14T06:52:29.101Z,8.20
2018-11-14T06:57:26.506Z,9.70
2018-11-14T07:02:27.319Z,7.13
2018-11-14T07:07:21.289Z,8.07
2018-11-14T07:12:18.666Z,7.77
2018-11-14T07:17:16.301Z,7.00
2018-11-14T07:22:13.726Z,7.20
2018-11-14T07:27:11.125Z,8.53
2018-11-14T07:32:08.570Z,8.10
2018-11-14T07:37:05.962Z,8.70
2018-11-14T07:42:03.469Z,8.97
2018-11-14T07:47:00.892Z,7.13
2018-11-14T07:51:58.312Z,8.10
2018-11-14T07:56:55.706Z,8.27
2018-11-14T08:01:53.144Z,9.20
2018-11-14T08:06:50.563Z,7.67
2018-11-14T08:11:47.976Z,9.27
2018-11-14T08:16:45.419Z,8.17
2018-11-14T08:21:42.820Z,9.47
2018-11-14T08:26:40.185Z,9.20
2018-11-14T08:31:37.887Z,8.77
2018-11-14T08:36:35.286Z,8.40
2018-11-14T08:41:32.683Z,7.67
2018-11-14T08:46:30.110Z,8.23
2018-11-14T08:51:27.745Z,7.20
2018-11-14T08:56:25.168Z,7.77
2018-11-14T09:01:22.603Z,7.70
2018-11-14T09:06:20.155Z,8.37
2018-11-14T09:11:18.438Z,7.27
2018-11-14T09:16:15.885Z,7.17
2018-11-14T09:21:13.283Z,8.07
2018-11-14T09:26:10.709Z,8.23
2018-11-14T09:31:08.089Z,8.17
2018-11-14T09:36:05.487Z,7.60
2018-11-14T09:41:03.017Z,7.57
2018-11-14T09:46:01.599Z,7.67
2018-11-14T09:51:01.961Z,7.40
2018-11-14T09:56:01.167Z,7.43
2018-11-14T10:00:58.615Z,7.83
2018-11-14T10:11:10.859Z,7.47
2018-11-14T10:16:08.307Z,8.27
2018-11-14T10:21:05.991Z,8.47
2018-11-14T10:26:03.470Z,6.70
2018-11-14T10:31:00.971Z,7.50
2018-11-14T10:35:58.345Z,8.80
2018-11-14T10:40:55.880Z,7.60
2018-11-14T10:45:53.296Z,7.40
2018-11-14T10:50:50.753Z,6.73
2018-11-14T10:55:48.183Z,7.50
2018-11-14T11:00:52.010Z,7.10
2018-11-14T11:05:55.228Z,6.73
2018-11-14T11:10:58.167Z,6.87
2018-11-14T11:16:01.299Z,7.40
2018-11-14T11:20:58.887Z,6.07
2018-11-14T11:25:56.323Z,5.90
2018-11-14T11:30:53.747Z,6.03
2018-11-14T11:35:51.270Z,5.30
2018-11-14T11:40:48.722Z,4.83
2018-11-14T11:45:46.133Z,4.13
2018-11-14T11:50:43.556Z,4.50
2018-11-14T11:55:41.094Z,5.40
2018-11-14T12:00:38.742Z,5.57
2018-11-14T12:05:35.999Z,5.33
2018-11-14T12:10:33.432Z,4.40
2018-11-14T12:15:30.916Z,3.27
2018-11-14T12:20:28.350Z,3.03
2018-11-14T12:25:25.773Z,3.10
2018-11-14T12:30:23.314Z,2.17
2018-11-14T12:35:20.873Z,1.60
2018-11-14T12:40:18.299Z,1.20
2018-11-14T12:45:16.248Z,1.77
2018-11-14T12:50:14.155Z,1.70
2018-11-14T12:55:14.069Z,1.87
2018-11-14T13:00:13.052Z,2.30
2018-11-14T13:05:12.679Z,1.50
2018-11-14T13:10:12.346Z,1.10
2018-11-14T13:15:10.951Z,1.57
2018-11-14T13:20:11.352Z,2.73
2018-11-14T13:25:10.473Z,1.10
2018-11-14T13:30:09.894Z,2.10
2018-11-14T13:35:09.656Z,1.63
2018-11-14T13:40:07.811Z,1.57
2018-11-14T13:45:06.695Z,2.00
2018-11-14T13:50:05.070Z,4.00
2018-11-14T13:55:02.452Z,2.03
2018-11-14T13:59:59.861Z,3.20
2018-11-14T14:05:04.759Z,2.00
2018-11-14T14:10:02.515Z,1.93
2018-11-14T14:14:59.983Z,1.63
2018-11-14T14:19:57.356Z,1.60
2018-11-14T14:24:54.796Z,2.30
2018-11-14T14:29:52.216Z,2.13
2018-11-14T14:34:53.501Z,2.57
2018-11-14T14:39:50.916Z,2.27
2018-11-14T14:44:48.334Z,2.63
2018-11-14T14:49:45.767Z,1.90
2018-11-14T14:54:43.196Z,2.37
2018-11-14T14:59:40.635Z,2.70
2018-11-14T15:04:41.168Z,2.37
2018-11-14T15:09:38.733Z,2.07
2018-11-14T15:14:36.071Z,2.53
2018-11-14T15:19:33.512Z,2.70
2018-11-14T15:24:30.910Z,2.30
2018-11-14T15:29:28.353Z,2.40
2018-11-14T15:34:33.622Z,2.63
2018-11-14T15:39:31.113Z,3.20
2018-11-14T15:44:28.519Z,3.00
2018-11-14T15:49:25.939Z,3.20
2018-11-14T15:54:23.372Z,3.73
2018-11-14T15:59:20.805Z,3.30
2018-11-14T16:04:20.306Z,3.03
2018-11-14T16:09:17.794Z,3.30
2018-11-14T16:14:15.195Z,3.50
2018-11-14T16:19:12.617Z,2.40
2018-11-14T16:24:10.068Z,3.37
2018-11-14T16:29:07.487Z,2.80
2018-11-14T16:34:04.950Z,3.70
2018-11-14T16:39:02.492Z,3.27
2018-11-14T16:43:59.887Z,3.33
2018-11-14T16:48:57.284Z,3.50
2018-11-14T16:53:54.671Z,4.23
2018-11-14T16:58:52.064Z,3.80
2018-11-14T17:03:49.497Z,4.77
2018-11-14T17:08:46.864Z,5.00
2018-11-14T17:13:44.270Z,5.70
2018-11-14T17:18:41.680Z,6.17
2018-11-14T17:23:39.078Z,6.90
2018-11-14T17:28:36.486Z,5.93
2018-11-14T17:33:33.870Z,5.90
2018-11-14T17:38:31.263Z,6.77
2018-11-14T17:43:28.708Z,7.50
2018-11-14T17:48:34.616Z,6.33
2018-11-14T17:53:35.314Z,5.97
2018-11-14T17:58:35.154Z,6.80
2018-11-14T18:03:39.609Z,6.63
2018-11-14T18:08:44.521Z,7.17
2018-11-14T18:13:42.016Z,7.93
2018-11-14T18:18:39.418Z,8.30
2018-11-14T18:23:36.820Z,8.60
2018-11-14T18:28:34.220Z,7.60
2018-11-14T18:33:31.648Z,7.97
2018-11-14T18:38:29.083Z,7.60
2018-11-14T18:43:26.544Z,9.10
2018-11-14T18:48:24.008Z,8.53
2018-11-14T18:53:22.676Z,8.87
2018-11-14T18:58:20.835Z,9.77
2018-11-14T19:03:18.239Z,9.03
2018-11-14T19:08:15.636Z,9.23
2018-11-14T19:13:13.114Z,8.70
2018-11-14T19:18:10.551Z,9.17
2018-11-14T19:23:07.972Z,9.33
2018-11-14T19:28:05.612Z,9.87
2018-11-14T19:33:03.369Z,10.30
2018-11-14T19:38:01.079Z,9.57
2018-11-14T19:42:59.780Z,9.27
2018-11-14T19:47:57.300Z,8.93
2018-11-14T19:52:54.803Z,10.30
2018-11-14T19:57:53.719Z,9.83
2018-11-14T20:02:51.118Z,10.80
2018-11-14T20:07:48.563Z,11.00
2018-11-14T20:12:46.431Z,11.10
2018-11-14T20:17:44.636Z,10.80
2018-11-14T20:22:42.619Z,10.23
2018-11-14T20:27:40.395Z,9.83
2018-11-14T20:32:37.835Z,10.63
2018-11-14T20:37:35.363Z,11.33
2018-11-14T20:42:32.767Z,10.33
2018-11-14T20:47:30.349Z,11.27
2018-11-14T20:52:27.775Z,11.80
2018-11-14T20:57:25.191Z,11.70
2018-11-14T21:02:22.585Z,10.33
2018-11-14T21:07:20.032Z,10.60
2018-11-14T21:12:19.927Z,11.17
2018-11-14T21:17:19.927Z,11.10
2018-11-14T21:22:21.446Z,10.50
2018-11-14T21:27:20.411Z,9.90
2018-11-14T21:32:21.656Z,10.53
2018-11-14T21:37:22.020Z,11.07
2018-11-14T21:42:21.710Z,10.10
2018-11-14T21:47:26.789Z,10.17
2018-11-14T21:52:28.761Z,10.43
2018-11-14T21:57:28.471Z,10.73
2018-11-14T22:02:25.950Z,10.37
2018-11-14T22:07:23.350Z,10.57
2018-11-14T22:12:20.804Z,11.90
2018-11-14T22:17:18.271Z,10.03
2018-11-14T22:22:15.679Z,10.63
2018-11-14T22:27:13.072Z,10.10
2018-11-14T22:32:17.534Z,10.40
2018-11-14T22:37:19.382Z,10.30
2018-11-14T22:42:17.441Z,9.77
2018-11-14T22:47:14.884Z,10.03
2018-11-14T22:52:12.275Z,9.90
2018-11-14T22:57:09.671Z,10.93
2018-11-14T23:02:07.488Z,11.33
2018-11-14T23:07:04.983Z,10.03
2018-11-14T23:12:02.388Z,8.90
2018-11-14T23:16:59.819Z,9.70
2018-11-14T23:21:57.312Z,10.33
2018-11-14T23:26:54.716Z,10.30
2018-11-14T23:31:52.091Z,9.30
2018-11-14T23:36:49.491Z,10.20
2018-11-14T23:41:46.862Z,9.30
2018-11-14T23:46:44.251Z,8.87
2018-11-14T23:51:41.753Z,11.77
2018-11-14T23:56:39.206Z,9.27
